createdAt,value
2022-09-07T00:01:25.610Z,95827.88
2022-09-07T00:03:56.729Z,95828.66
2022-09-07T00:06:26.236Z,95825.47
2022-09-07T00:08:57.088Z,95821.50
2022-09-07T00:11:29.092Z,95825.31
2022-09-07T00:13:57.731Z,95819.56
2022-09-07T00:16:27.763Z,95821.47
2022-09-07T00:18:57.356Z,95817.94
2022-09-07T00:21:25.465Z,95808.25
2022-09-07T00:23:53.570Z,95812.34
2022-09-07T00:26:22.545Z,95811.56
2022-09-07T00:28:52.536Z,95809.03
2022-09-07T00:31:22.604Z,95811.09
2022-09-07T00:33:52.043Z,95807.28
2022-09-07T00:36:20.665Z,95801.53
2022-09-07T00:38:49.950Z,95796.44
2022-09-07T00:41:18.459Z,95798.34
2022-09-07T00:43:50.042Z,95795.34
2022-09-07T00:46:20.425Z,95792.81
2022-09-07T00:48:50.501Z,95797.13
2022-09-07T00:51:20.586Z,95794.53
2022-09-07T00:53:53.807Z,95801.53
2022-09-07T00:56:24.319Z,95795.03
2022-09-07T00:58:54.083Z,95807.25
2022-09-07T01:01:24.458Z,95805.00
2022-09-07T01:03:53.060Z,95816.06
2022-09-07T01:06:22.726Z,95818.41
2022-09-07T01:08:51.444Z,95817.19
2022-09-07T01:11:20.917Z,95812.53
2022-09-07T01:13:50.077Z,95806.44
2022-09-07T01:16:31.619Z,95818.16
2022-09-07T01:19:03.980Z,95813.56
2022-09-07T01:21:35.584Z,95815.59
2022-09-07T01:24:30.456Z,95814.72
2022-09-07T01:27:46.053Z,95806.06
2022-09-07T01:30:14.570Z,95805.34
2022-09-07T01:32:54.743Z,95807.19
2022-09-07T01:35:24.137Z,95808.19
2022-09-07T01:37:57.295Z,95814.53
2022-09-07T01:40:36.581Z,95798.75
2022-09-07T01:43:09.182Z,95800.56
2022-09-07T01:45:37.576Z,95798.25
2022-09-07T01:48:07.098Z,95798.88
2022-09-07T01:50:37.093Z,95796.25
2022-09-07T01:53:07.559Z,95797.63
2022-09-07T01:55:37.241Z,95798.72
2022-09-07T01:58:09.735Z,95791.13
2022-09-07T02:00:39.492Z,95793.03
2022-09-07T02:03:10.858Z,95793.34
2022-09-07T02:05:42.821Z,95796.16
2022-09-07T02:08:12.540Z,95795.63
2022-09-07T02:10:41.944Z,95808.94
2022-09-07T02:13:13.993Z,95799.56
2022-09-07T02:15:44.362Z,95797.44
2022-09-07T02:18:13.910Z,95797.25
2022-09-07T02:20:44.641Z,95794.06
2022-09-07T02:23:14.423Z,95795.03
2022-09-07T02:25:45.365Z,95789.34
2022-09-07T02:28:16.634Z,95788.25
2022-09-07T02:30:45.201Z,95787.38
2022-09-07T02:33:13.705Z,95804.03
2022-09-07T02:35:42.191Z,95798.25
2022-09-07T02:38:10.661Z,95800.84
2022-09-07T02:40:39.251Z,95794.59
2022-09-07T02:43:07.990Z,95801.88
2022-09-07T02:45:48.380Z,95792.75
2022-09-07T02:48:18.774Z,95786.38
2022-09-07T02:50:51.459Z,95794.53
2022-09-07T02:53:55.090Z,95787.97
2022-09-07T02:56:31.452Z,95790.75
2022-09-07T02:59:08.611Z,95791.06
2022-09-07T03:01:42.964Z,95782.19
2022-09-07T03:04:14.320Z,95788.03
2022-09-07T03:06:44.492Z,95784.06
2022-09-07T03:09:14.206Z,95778.69
2022-09-07T03:11:42.488Z,95776.47
2022-09-07T03:14:15.317Z,95774.09
2022-09-07T03:16:45.312Z,95763.91
2022-09-07T03:19:13.552Z,95775.78
2022-09-07T03:21:41.937Z,95774.00
2022-09-07T03:24:10.857Z,95768.91
2022-09-07T03:26:43.748Z,95774.06
2022-09-07T03:29:14.136Z,95775.97
2022-09-07T03:31:43.036Z,95772.78
2022-09-07T03:34:14.659Z,95770.06
2022-09-07T03:36:44.038Z,95779.59
2022-09-07T03:39:13.988Z,95779.16
2022-09-07T03:41:43.317Z,95778.16
2022-09-07T03:44:11.853Z,95773.66
2022-09-07T03:46:40.332Z,95778.53
2022-09-07T03:49:09.328Z,95777.16
2022-09-07T03:51:39.427Z,95775.78
2022-09-07T03:54:08.313Z,95779.56
2022-09-07T03:56:36.550Z,95788.94
2022-09-07T03:59:05.142Z,95778.16
2022-09-07T04:01:33.413Z,95775.66
2022-09-07T04:04:03.749Z,95771.56
2022-09-07T04:06:32.467Z,95774.56
2022-09-07T04:09:04.998Z,95776.47
2022-09-07T04:11:33.759Z,95771.69
2022-09-07T04:14:04.601Z,95773.56
2022-09-07T04:16:32.760Z,95770.38
2022-09-07T04:19:03.386Z,95769.47
2022-09-07T04:21:32.519Z,95755.50
2022-09-07T04:24:01.075Z,95759.09
2022-09-07T04:26:32.453Z,95765.56
2022-09-07T04:29:01.206Z,95759.19
2022-09-07T04:31:29.881Z,95756.81
2022-09-07T04:33:58.259Z,95753.19
2022-09-07T04:36:26.437Z,95752.41
2022-09-07T04:38:58.070Z,95751.91
2022-09-07T04:41:26.887Z,95750.31
2022-09-07T04:44:00.318Z,95760.00
2022-09-07T04:46:30.254Z,95752.59
2022-09-07T04:49:01.564Z,95753.41
2022-09-07T04:51:39.758Z,95746.13
2022-09-07T04:54:10.170Z,95755.00
2022-09-07T04:56:40.297Z,95754.22
2022-09-07T04:59:12.309Z,95748.53
2022-09-07T05:01:43.067Z,95751.41
2022-09-07T05:04:12.727Z,95745.41
2022-09-07T05:06:42.479Z,95739.94
2022-09-07T05:09:11.793Z,95737.94
2022-09-07T05:11:40.252Z,95736.72
2022-09-07T05:14:12.707Z,95736.00
2022-09-07T05:16:44.830Z,95741.53
2022-09-07T05:19:14.931Z,95738.91
2022-09-07T05:21:48.117Z,95747.63
2022-09-07T05:24:17.437Z,95737.72
2022-09-07T05:26:45.771Z,95741.75
2022-09-07T05:32:12.098Z,95743.63
2022-09-07T05:34:40.239Z,95744.69
2022-09-07T05:37:11.741Z,95750.66
2022-09-07T05:39:40.575Z,95743.22
2022-09-07T05:42:12.245Z,95750.88
2022-09-07T05:44:51.369Z,95749.69
2022-09-07T05:47:20.952Z,95759.13
2022-09-07T05:49:52.928Z,95756.34
2022-09-07T05:52:26.553Z,95758.38
2022-09-07T05:55:07.420Z,95756.88
2022-09-07T05:57:43.886Z,95759.16
2022-09-07T06:00:16.224Z,95766.72
2022-09-07T06:02:46.868Z,95762.34
2022-09-07T06:05:16.602Z,95760.19
2022-09-07T06:07:48.388Z,95763.09
2022-09-07T06:13:07.918Z,95766.13
2022-09-07T06:15:38.395Z,95769.75
2022-09-07T06:18:07.220Z,95767.38
2022-09-07T06:20:38.541Z,95765.63
2022-09-07T06:23:07.417Z,95752.06
2022-09-07T06:25:35.962Z,95752.84
2022-09-07T06:28:06.890Z,95747.72
2022-09-07T06:30:38.273Z,95738.16
2022-09-07T06:33:07.817Z,95742.00
2022-09-07T06:35:36.140Z,95742.50
2022-09-07T06:38:04.746Z,95741.84
2022-09-07T06:40:35.906Z,95747.47
2022-09-07T06:43:04.114Z,95748.06
2022-09-07T06:45:33.791Z,95741.66
2022-09-07T06:48:03.996Z,95749.09
2022-09-07T06:50:32.398Z,95742.97
2022-09-07T06:55:48.650Z,95738.06
2022-09-07T06:58:16.825Z,95739.34
2022-09-07T07:00:44.865Z,95748.63
2022-09-07T07:03:14.404Z,95744.06
2022-09-07T07:05:42.543Z,95744.34
2022-09-07T07:08:10.625Z,95747.09
2022-09-07T07:10:40.123Z,95751.44
2022-09-07T07:13:08.237Z,95751.84
2022-09-07T07:15:42.003Z,95757.81
2022-09-07T07:18:21.209Z,95768.31
2022-09-07T07:20:52.192Z,95764.44
2022-09-07T07:23:20.700Z,95775.66
2022-09-07T07:25:48.969Z,95762.19
2022-09-07T07:31:09.490Z,95760.56
2022-09-07T07:33:40.170Z,95755.38
2022-09-07T07:36:11.627Z,95755.31
2022-09-07T07:44:20.728Z,95771.69
2022-09-07T07:46:50.319Z,95771.84
2022-09-07T07:49:18.980Z,95776.19
2022-09-07T07:54:37.928Z,95771.25
2022-09-07T07:57:06.330Z,95779.28
2022-09-07T07:59:35.033Z,95772.72
2022-09-07T08:02:05.245Z,95773.41
2022-09-07T08:04:33.977Z,95771.00
2022-09-07T08:07:09.458Z,95775.09
2022-09-07T08:09:38.459Z,95776.56
2022-09-07T08:12:06.895Z,95775.16
2022-09-07T08:14:36.653Z,95784.44
2022-09-07T08:17:05.160Z,95774.19
2022-09-07T08:19:33.503Z,95776.56
2022-09-07T08:22:03.887Z,95782.59
2022-09-07T08:24:32.682Z,95777.03
2022-09-07T08:27:01.062Z,95770.94
2022-09-07T08:29:33.468Z,95772.84
2022-09-07T08:32:04.117Z,95777.25
2022-09-07T08:34:32.272Z,95776.34
2022-09-07T08:37:00.354Z,95773.16
2022-09-07T08:39:30.059Z,95765.09
2022-09-07T08:42:20.435Z,95766.44
2022-09-07T08:44:50.145Z,95773.38
2022-09-07T08:47:25.635Z,95767.06
2022-09-07T08:49:54.995Z,95770.56
2022-09-07T08:52:24.810Z,95763.47
2022-09-07T08:55:00.650Z,95770.03
2022-09-07T08:57:30.861Z,95764.91
2022-09-07T09:00:04.046Z,95765.03
2022-09-07T09:02:35.388Z,95769.88
2022-09-07T09:05:19.269Z,95768.75
2022-09-07T09:07:51.779Z,95776.13
2022-09-07T09:10:27.435Z,95781.91
2022-09-07T09:13:02.595Z,95777.91
2022-09-07T09:15:37.253Z,95779.72
2022-09-07T09:18:14.543Z,95778.94
2022-09-07T09:20:46.022Z,95779.53
2022-09-07T09:23:15.629Z,95782.47
2022-09-07T09:25:47.942Z,95778.44
2022-09-07T09:28:16.318Z,95782.06
2022-09-07T09:30:44.940Z,95782.25
2022-09-07T09:33:14.759Z,95783.81
2022-09-07T09:35:47.077Z,95776.34
2022-09-07T09:38:33.226Z,95779.06
2022-09-07T09:41:06.622Z,95783.81
2022-09-07T09:43:41.975Z,95783.63
2022-09-07T09:46:20.201Z,95778.25
2022-09-07T09:48:55.060Z,95780.84
2022-09-07T09:54:22.435Z,95780.66
2022-09-07T09:56:54.426Z,95787.66
2022-09-07T10:05:28.107Z,95788.03
2022-09-07T10:07:57.965Z,95779.34
2022-09-07T10:10:27.482Z,95788.81
2022-09-07T10:12:59.953Z,95798.75
2022-09-07T10:15:42.519Z,95789.19
2022-09-07T10:18:19.146Z,95793.16
2022-09-07T10:20:47.872Z,95795.91
2022-09-07T10:23:21.859Z,95794.88
2022-09-07T10:25:52.662Z,95808.03
2022-09-07T10:28:25.276Z,95804.25
2022-09-07T10:31:02.518Z,95804.28
2022-09-07T10:33:37.125Z,95806.63
2022-09-07T10:36:07.061Z,95806.13
2022-09-07T10:38:36.681Z,95798.78
2022-09-07T10:41:06.035Z,95796.88
2022-09-07T10:43:42.462Z,95797.78
2022-09-07T10:49:20.924Z,95792.31
2022-09-07T10:51:59.537Z,95797.13
2022-09-07T10:54:33.571Z,95792.81
2022-09-07T10:57:06.615Z,95792.78
2022-09-07T11:03:24.783Z,95795.41
2022-09-07T11:05:38.544Z,95780.00
2022-09-07T11:08:18.168Z,95782.19
2022-09-07T11:10:49.355Z,95783.00
2022-09-07T11:13:19.592Z,95770.41
2022-09-07T11:15:51.127Z,95779.06
2022-09-07T11:18:21.554Z,95777.34
2022-09-07T11:20:55.032Z,95772.91
2022-09-07T11:23:25.792Z,95771.72
2022-09-07T11:25:58.628Z,95772.91
2022-09-07T11:28:28.185Z,95771.84
2022-09-07T11:31:04.613Z,95768.03
2022-09-07T11:33:38.228Z,95772.50
2022-09-07T11:36:12.026Z,95763.38
2022-09-07T11:38:42.442Z,95760.84
2022-09-07T11:41:20.674Z,95757.16
2022-09-07T11:43:53.434Z,95759.84
2022-09-07T11:46:32.490Z,95757.25
2022-09-07T11:49:04.469Z,95759.59
2022-09-07T11:51:39.865Z,95757.38
2022-09-07T11:54:20.815Z,95757.00
2022-09-07T11:56:55.085Z,95756.63
2022-09-07T11:59:36.152Z,95748.97
2022-09-07T12:02:57.704Z,95750.22
2022-09-07T12:05:26.968Z,95747.06
2022-09-07T12:08:08.532Z,95742.53
2022-09-07T12:11:09.775Z,95746.56
2022-09-07T12:14:01.062Z,95746.03
2022-09-07T12:16:38.249Z,95740.47
2022-09-07T12:19:16.860Z,95739.78
2022-09-07T12:21:54.960Z,95735.25
2022-09-07T12:24:42.820Z,95735.09
2022-09-07T12:27:16.647Z,95721.25
2022-09-07T12:29:46.482Z,95725.63
2022-09-07T12:35:38.946Z,95720.97
2022-09-07T12:38:50.517Z,95719.53
2022-09-07T12:41:23.293Z,95712.78
2022-09-07T12:44:09.660Z,95713.66
2022-09-07T12:46:47.260Z,95700.94
2022-09-07T12:49:48.418Z,95705.88
2022-09-07T12:52:27.857Z,95693.81
2022-09-07T12:55:16.750Z,95697.38
2022-09-07T12:57:54.521Z,95692.06
2022-09-07T13:00:26.962Z,95696.81
2022-09-07T13:07:01.714Z,95703.25
2022-09-07T13:09:38.388Z,95700.13
2022-09-07T13:15:43.784Z,95696.91
2022-09-07T13:18:18.113Z,95704.94
2022-09-07T13:20:53.731Z,95712.13
2022-09-07T13:23:26.181Z,95692.53
2022-09-07T13:26:06.303Z,95700.53
2022-09-07T13:28:43.280Z,95705.50
2022-09-07T13:31:31.260Z,95692.94
2022-09-07T13:34:00.560Z,95697.78
2022-09-07T13:37:00.771Z,95695.16
2022-09-07T13:39:31.768Z,95689.47
2022-09-07T13:42:08.531Z,95690.72
2022-09-07T13:44:38.577Z,95686.41
2022-09-07T13:47:27.187Z,95689.06
2022-09-07T13:50:09.661Z,95674.06
2022-09-07T13:52:49.562Z,95679.53
2022-09-07T13:55:26.112Z,95669.06
2022-09-07T13:58:01.883Z,95670.16
2022-09-07T14:00:31.139Z,95677.22
2022-09-07T14:03:01.798Z,95670.28
2022-09-07T14:05:30.256Z,95661.00
2022-09-07T14:07:58.195Z,95662.34
2022-09-07T14:10:26.759Z,95648.50
2022-09-07T14:13:05.776Z,95654.00
2022-09-07T14:15:35.179Z,95652.59
2022-09-07T14:18:04.772Z,95643.19
2022-09-07T14:20:33.583Z,95647.63
2022-09-07T14:23:01.588Z,95646.94
2022-09-07T14:25:29.764Z,95648.09
2022-09-07T14:28:01.113Z,95644.19
2022-09-07T14:30:30.342Z,95641.06
2022-09-07T14:33:00.653Z,95637.91
2022-09-07T14:35:30.154Z,95647.75
2022-09-07T14:38:00.137Z,95638.78
2022-09-07T14:40:28.194Z,95624.66
2022-09-07T14:42:56.404Z,95627.81
2022-09-07T14:45:37.527Z,95630.47
2022-09-07T14:48:29.242Z,95618.25
2022-09-07T14:51:19.430Z,95628.47
2022-09-07T14:53:51.231Z,95621.38
2022-09-07T14:56:21.398Z,95624.50
2022-09-07T14:58:51.101Z,95635.88
2022-09-07T15:01:51.059Z,95633.72
2022-09-07T15:04:45.834Z,95637.78
2022-09-07T15:07:40.128Z,95628.53
2022-09-07T15:10:29.057Z,95627.56
2022-09-07T15:13:07.918Z,95632.16
2022-09-07T15:15:37.810Z,95637.53
2022-09-07T15:18:36.615Z,95637.09
2022-09-07T15:21:08.986Z,95630.81
2022-09-07T15:23:37.142Z,95626.13
2022-09-07T15:29:10.872Z,95609.56
2022-09-07T15:31:42.207Z,95601.88
2022-09-07T15:34:12.464Z,95599.59
2022-09-07T15:36:44.751Z,95597.00
2022-09-07T15:39:17.390Z,95591.84
2022-09-07T15:41:47.000Z,95602.84
2022-09-07T15:44:16.361Z,95596.56
2022-09-07T15:47:43.155Z,95592.91
2022-09-07T15:49:32.686Z,95586.53
2022-09-07T15:52:05.383Z,95582.53
2022-09-07T15:54:39.254Z,95578.16
2022-09-07T15:59:59.019Z,95578.06
2022-09-07T16:05:20.211Z,95581.09
2022-09-07T16:10:53.484Z,95566.31
2022-09-07T16:13:31.469Z,95565.66
2022-09-07T16:17:25.722Z,95569.38
2022-09-07T16:19:20.604Z,95580.78
2022-09-07T16:21:49.971Z,95577.16
2022-09-07T16:24:20.548Z,95583.75
2022-09-07T16:26:50.408Z,95584.31
2022-09-07T16:29:19.128Z,95590.31
2022-09-07T16:34:39.494Z,95602.56
2022-09-07T16:37:10.434Z,95604.53
2022-09-07T16:39:43.480Z,95595.38
2022-09-07T16:42:18.050Z,95608.38
2022-09-07T16:44:54.899Z,95599.94
2022-09-07T16:47:26.961Z,95597.22
2022-09-07T16:49:56.047Z,95591.44
2022-09-07T16:52:26.270Z,95585.63
2022-09-07T16:54:58.031Z,95596.97
2022-09-07T16:58:35.148Z,95599.78
2022-09-07T17:00:25.840Z,95595.19
2022-09-07T17:02:54.847Z,95596.06
2022-09-07T17:05:25.128Z,95596.94
2022-09-07T17:07:56.773Z,95595.41
2022-09-07T17:10:29.403Z,95603.41
2022-09-07T17:13:08.783Z,95602.25
2022-09-07T17:15:37.955Z,95614.31
2022-09-07T17:18:08.434Z,95620.06
2022-09-07T17:20:42.513Z,95626.91
2022-09-07T17:23:11.958Z,95632.59
2022-09-07T17:25:41.684Z,95630.81
2022-09-07T17:28:09.724Z,95634.81
2022-09-07T17:30:39.385Z,95638.47
2022-09-07T17:33:07.874Z,95625.31
2022-09-07T17:35:37.486Z,95625.34
2022-09-07T17:40:58.624Z,95613.09
2022-09-07T17:43:45.557Z,95606.75
2022-09-07T17:46:15.844Z,95610.84
2022-09-07T17:48:44.560Z,95609.22
2022-09-07T17:51:12.681Z,95604.00
2022-09-07T17:53:43.341Z,95605.84
2022-09-07T17:56:15.735Z,95610.03
2022-09-07T17:58:45.362Z,95602.97
2022-09-07T18:01:15.343Z,95606.88
2022-09-07T18:03:44.940Z,95600.75
2022-09-07T18:06:13.678Z,95605.94
2022-09-07T18:08:41.936Z,95606.00
2022-09-07T18:14:01.608Z,95617.00
2022-09-07T18:16:31.313Z,95617.56
2022-09-07T18:19:00.456Z,95624.16
2022-09-07T18:21:32.492Z,95623.91
2022-09-07T18:24:01.523Z,95623.44
2022-09-07T18:26:29.904Z,95623.44
2022-09-07T18:29:10.467Z,95625.03
2022-09-07T18:31:48.171Z,95640.66
2022-09-07T18:34:16.618Z,95631.09
2022-09-07T18:36:47.448Z,95628.75
2022-09-07T18:39:15.561Z,95636.81
2022-09-07T18:41:44.266Z,95631.75
2022-09-07T18:47:02.083Z,95631.06
2022-09-07T18:49:30.225Z,95632.94
2022-09-07T18:54:47.423Z,95629.97
2022-09-07T18:57:15.702Z,95634.78
2022-09-07T18:59:44.147Z,95631.13
2022-09-07T19:02:22.345Z,95630.19
2022-09-07T19:07:39.894Z,95626.53
2022-09-07T19:10:09.882Z,95617.78
2022-09-07T19:12:40.640Z,95625.28
2022-09-07T19:15:12.635Z,95616.69
2022-09-07T19:17:43.621Z,95608.25
2022-09-07T19:20:11.989Z,95606.47
2022-09-07T19:22:40.198Z,95608.84
2022-09-07T19:25:08.934Z,95614.84
2022-09-07T19:27:39.125Z,95621.00
2022-09-07T19:30:10.288Z,95617.97
2022-09-07T19:32:38.845Z,95623.72
2022-09-07T19:35:11.519Z,95619.13
2022-09-07T19:37:40.317Z,95611.03
2022-09-07T19:40:14.742Z,95617.44
2022-09-07T19:42:46.929Z,95621.91
2022-09-07T19:45:15.981Z,95626.22
2022-09-07T19:47:44.354Z,95623.53
2022-09-07T19:50:15.983Z,95612.19
2022-09-07T19:52:46.615Z,95613.03
2022-09-07T19:55:17.103Z,95602.22
2022-09-07T19:57:48.229Z,95594.91
2022-09-07T20:00:18.720Z,95593.78
2022-09-07T20:02:47.240Z,95592.38
2022-09-07T20:05:17.266Z,95580.91
2022-09-07T20:07:45.524Z,95577.25
2022-09-07T20:10:15.369Z,95568.00
2022-09-07T20:12:43.506Z,95581.97
2022-09-07T20:15:11.716Z,95569.44
2022-09-07T20:17:40.938Z,95566.72
2022-09-07T20:20:11.254Z,95554.16
2022-09-07T20:22:47.994Z,95561.78
2022-09-07T20:25:18.135Z,95560.84
2022-09-07T20:27:46.421Z,95562.56
2022-09-07T20:30:15.491Z,95565.13
2022-09-07T20:32:43.913Z,95559.06
2022-09-07T20:35:11.893Z,95555.88
2022-09-07T20:37:42.702Z,95560.03
2022-09-07T20:40:11.740Z,95557.34
2022-09-07T20:42:41.050Z,95561.75
2022-09-07T20:45:11.137Z,95553.66
2022-09-07T20:47:39.215Z,95556.19
2022-09-07T20:50:08.250Z,95550.31
2022-09-07T20:52:36.382Z,95547.75
2022-09-07T20:55:07.403Z,95544.56
2022-09-07T20:57:37.917Z,95549.31
2022-09-07T21:00:08.204Z,95548.03
2022-09-07T21:02:36.489Z,95542.44
2022-09-07T21:05:08.267Z,95540.25
2022-09-07T21:07:38.935Z,95542.50
2022-09-07T21:10:09.872Z,95534.41
2022-09-07T21:12:37.859Z,95534.91
2022-09-07T21:15:06.869Z,95537.44
2022-09-07T21:17:38.755Z,95539.38
2022-09-07T21:20:08.182Z,95537.56
2022-09-07T21:22:37.752Z,95537.75
2022-09-07T21:25:07.775Z,95535.34
2022-09-07T21:27:38.986Z,95524.31
2022-09-07T21:30:07.831Z,95519.00
2022-09-07T21:32:36.092Z,95517.53
2022-09-07T21:35:04.059Z,95520.56
2022-09-07T21:37:32.729Z,95518.16
2022-09-07T21:40:03.068Z,95522.78
2022-09-07T21:42:31.126Z,95510.69
2022-09-07T21:45:00.695Z,95510.81
2022-09-07T21:47:29.041Z,95515.09
2022-09-07T21:49:57.288Z,95519.72
2022-09-07T21:52:25.901Z,95513.53
2022-09-07T21:54:54.095Z,95507.66
2022-09-07T21:57:23.099Z,95507.00
2022-09-07T21:59:51.049Z,95509.81
2022-09-07T22:02:24.097Z,95505.47
2022-09-07T22:04:55.820Z,95497.03
2022-09-07T22:07:25.532Z,95497.72
2022-09-07T22:09:53.880Z,95504.78
2022-09-07T22:12:22.206Z,95502.75
2022-09-07T22:14:51.590Z,95505.34
2022-09-07T22:17:22.587Z,95499.16
2022-09-07T22:19:51.278Z,95503.81
2022-09-07T22:22:19.298Z,95495.72
2022-09-07T22:24:51.402Z,95498.28
2022-09-07T22:27:19.678Z,95497.16
2022-09-07T22:29:48.424Z,95491.75
2022-09-07T22:32:17.526Z,95494.16
2022-09-07T22:34:47.711Z,95498.44
2022-09-07T22:37:20.400Z,95493.22
2022-09-07T22:39:50.248Z,95494.50
2022-09-07T22:42:18.678Z,95491.94
2022-09-07T22:44:53.534Z,95491.31
2022-09-07T22:47:22.896Z,95488.28
2022-09-07T22:49:53.829Z,95485.28
2022-09-07T22:52:23.573Z,95488.16
2022-09-07T22:54:53.852Z,95484.47
2022-09-07T22:57:22.064Z,95479.69
2022-09-07T22:59:51.727Z,95477.66
2022-09-07T23:02:21.398Z,95480.19
2022-09-07T23:04:50.020Z,95467.78
2022-09-07T23:07:22.686Z,95467.63
2022-09-07T23:09:51.170Z,95471.44
2022-09-07T23:12:21.463Z,95458.56
2022-09-07T23:14:52.367Z,95466.19
2022-09-07T23:17:20.651Z,95471.44
2022-09-07T23:19:48.930Z,95472.34
2022-09-07T23:22:17.222Z,95465.66
2022-09-07T23:24:48.082Z,95467.88
2022-09-07T23:27:16.550Z,95460.72
2022-09-07T23:29:45.573Z,95462.63
2022-09-07T23:32:14.018Z,95455.16
2022-09-07T23:34:44.363Z,95457.41
2022-09-07T23:37:12.529Z,95469.63
2022-09-07T23:39:44.281Z,95454.53
2022-09-07T23:42:18.759Z,95450.72
2022-09-07T23:44:48.845Z,95454.53
2022-09-07T23:47:20.953Z,95447.53
2022-09-07T23:49:49.967Z,95445.31
2022-09-07T23:52:19.102Z,95438.00
2022-09-07T23:54:48.972Z,95422.09
2022-09-07T23:57:18.971Z,95417.34
2022-09-07T23:59:47.542Z,95419.56
